Time;durP1;ratioP1;P1;durP2;ratioP2;P2;SDS_P1;SDS_P2;PMS_P1;PMS_P2;Temp;Humidity;BMP_temperature;BMP_pressure;BME280_temperature;BME280_humidity;BME280_pressure;Samples;Min_cycle;Max_cycle;Signal;HPM_P1;HPM_P2
2022/01/18 00:00:03;;;;;;;0.60;0.60;;;;;;;2.40;65.06;102694.34;685290;28;22175;-67
2022/01/18 00:00:28;;;;;;;0.50;0.50;;;;;;;2.39;65.13;102695.28;683079;28;96999;-67
2022/01/18 00:00:50;;;;;;;0.50;0.50;;;;;;;2.38;65.16;102690.88;683144;28;91496;-67
2022/01/18 00:01:11;;;;;;;0.55;0.55;;;;;;;2.37;65.16;102691.84;684206;28;46303;-67
2022/01/18 00:01:33;;;;;;;0.70;0.70;;;;;;;2.39;64.98;102691.75;684841;28;44293;-67
2022/01/18 00:01:55;;;;;;;0.60;0.60;;;;;;;2.39;65.28;102683.75;685248;28;22207;-67
2022/01/18 00:02:16;;;;;;;0.50;0.50;;;;;;;2.38;65.27;102698.03;684835;28;44158;-67
2022/01/18 00:02:38;;;;;;;0.57;0.57;;;;;;;2.37;65.17;102690.94;685528;28;22411;-67
2022/01/18 00:02:59;;;;;;;0.50;0.50;;;;;;;2.38;65.18;102703.34;684861;28;44404;-67
2022/01/18 00:03:20;;;;;;;0.50;0.50;;;;;;;2.33;65.11;102696.44;684958;28;22399;-67
2022/01/18 00:03:43;;;;;;;0.50;0.50;;;;;;;2.36;65.09;102697.25;685347;28;22341;-67
2022/01/18 00:04:05;;;;;;;0.63;0.63;;;;;;;2.34;65.33;102698.16;683242;28;34690;-67
2022/01/18 00:04:27;;;;;;;0.60;0.60;;;;;;;2.32;65.29;102699.16;682383;28;69517;-67
2022/01/18 00:04:48;;;;;;;0.60;0.60;;;;;;;2.33;65.30;102695.56;683831;28;21542;-67
2022/01/18 00:05:13;;;;;;;0.60;0.60;;;;;;;2.33;65.42;102698.25;684105;28;22413;-67
2022/01/18 00:05:36;;;;;;;0.55;0.55;;;;;;;2.33;65.55;102695.56;680161;28;138554;-67
2022/01/18 00:05:57;;;;;;;0.50;0.50;;;;;;;2.33;65.43;102699.09;683905;28;44372;-67
2022/01/18 00:06:18;;;;;;;0.43;0.43;;;;;;;2.36;65.46;102705.25;685268;28;24315;-67
2022/01/18 00:06:42;;;;;;;0.60;0.60;;;;;;;2.34;65.49;102705.31;684856;28;22397;-67
2022/01/18 00:07:03;;;;;;;0.60;0.60;;;;;;;2.31;65.58;102695.66;682717;28;90858;-67
2022/01/18 00:07:24;;;;;;;0.60;0.60;;;;;;;2.35;65.46;102701.69;686487;28;1446;-67
2022/01/18 00:07:46;;;;;;;0.60;0.60;;;;;;;2.36;65.40;102698.09;684214;28;44392;-67
2022/01/18 00:08:09;;;;;;;0.50;0.50;;;;;;;2.35;65.42;102699.03;684584;28;44575;-67
2022/01/18 00:08:30;;;;;;;0.50;0.50;;;;;;;2.37;65.62;102704.28;681169;28;46334;-67
2022/01/18 00:08:51;;;;;;;0.50;0.50;;;;;;;2.36;65.38;102710.56;682623;28;22350;-67
2022/01/18 00:09:12;;;;;;;0.60;0.60;;;;;;;2.37;65.53;102701.63;682084;28;22427;-67
2022/01/18 00:09:38;;;;;;;0.70;0.70;;;;;;;2.36;65.54;102700.75;682601;28;22867;-67
2022/01/18 00:09:59;;;;;;;0.60;0.60;;;;;;;2.37;65.51;102706.94;678803;28;138255;-67
2022/01/18 00:10:23;;;;;;;0.60;0.60;;;;;;;2.37;65.60;102701.63;683574;28;23334;-67
2022/01/18 00:10:44;;;;;;;0.60;0.60;;;;;;;2.34;65.45;102697.31;682995;28;92281;-67
2022/01/18 00:11:07;;;;;;;0.50;0.50;;;;;;;2.34;65.31;102700.84;685209;28;46241;-67
2022/01/18 00:11:34;;;;;;;0.50;0.50;;;;;;;2.35;65.51;102712.34;684488;28;46321;-67
2022/01/18 00:11:59;;;;;;;0.65;0.65;;;;;;;2.37;65.47;102714.94;680642;28;138270;-67
2022/01/18 00:13:23;;;;;;;0.60;0.60;;;;;;;2.35;65.47;102707.03;676381;28;135841;-67
2022/01/18 00:13:47;;;;;;;0.50;0.50;;;;;;;2.34;65.49;102708.84;682227;28;137648;-67
2022/01/18 00:14:14;;;;;;;0.50;0.50;;;;;;;2.32;65.43;102707.16;684110;28;67510;-67
2022/01/18 00:14:42;;;;;;;0.60;0.60;;;;;;;2.33;65.50;102708.91;681651;28;138139;-67
2022/01/18 00:15:16;;;;;;;0.60;0.60;;;;;;;2.31;65.60;102714.31;681392;28;137956;-67
2022/01/18 00:15:42;;;;;;;0.60;0.60;;;;;;;2.31;65.67;102714.31;682022;28;137715;-67
2022/01/18 00:16:24;;;;;;;0.57;0.57;;;;;;;2.32;65.72;102709.84;681424;28;136475;-67
2022/01/18 00:17:01;;;;;;;0.50;0.50;;;;;;;2.26;65.54;102713.69;680051;28;138032;-67
2022/01/18 00:17:40;;;;;;;0.60;0.60;;;;;;;2.24;65.63;102714.69;681024;28;137318;-67
2022/01/18 00:18:10;;;;;;;0.60;0.60;;;;;;;2.22;65.61;102719.25;681071;28;137446;-68
2022/01/18 00:18:31;;;;;;;0.60;0.60;;;;;;;2.17;65.71;102714.97;681627;28;137743;-67
2022/01/18 00:18:54;;;;;;;0.57;0.57;;;;;;;2.18;65.77;102715.88;685568;28;23478;-67
2022/01/18 00:19:15;;;;;;;0.50;0.50;;;;;;;2.17;65.78;102725.66;683527;28;67534;-67
2022/01/18 00:19:40;;;;;;;0.60;0.60;;;;;;;2.17;65.73;102719.47;685507;28;22395;-67
2022/01/18 00:20:02;;;;;;;0.70;0.70;;;;;;;2.14;65.90;102723.13;682879;28;113630;-67
2022/01/18 00:20:33;;;;;;;0.70;0.70;;;;;;;2.11;65.74;102723.28;684374;28;46319;-67
2022/01/18 00:21:11;;;;;;;0.60;0.60;;;;;;;2.10;65.96;102726.91;679060;28;135998;-67
2022/01/18 00:21:48;;;;;;;0.60;0.60;;;;;;;2.07;65.92;102720.81;678935;28;137485;-67
2022/01/18 00:22:12;;;;;;;0.50;0.50;;;;;;;2.08;66.09;102730.56;676237;28;181245;-67
2022/01/18 00:22:33;;;;;;;0.70;0.70;;;;;;;2.05;66.20;102733.38;680838;28;93157;-67
2022/01/18 00:22:54;;;;;;;0.70;0.70;;;;;;;2.03;66.17;102733.44;685198;28;23514;-67
2022/01/18 00:23:16;;;;;;;0.60;0.60;;;;;;;1.99;66.13;102731.84;685300;28;23497;-67
2022/01/18 00:23:38;;;;;;;0.60;0.60;;;;;;;1.99;66.27;102723.84;684965;28;46268;-67
2022/01/18 00:23:59;;;;;;;0.60;0.60;;;;;;;2.00;66.32;102733.59;684696;28;47186;-67
2022/01/18 00:24:21;;;;;;;0.50;0.50;;;;;;;2.00;66.27;102727.41;685167;28;22394;-67
2022/01/18 00:24:43;;;;;;;0.50;0.50;;;;;;;2.01;66.47;102737.09;683996;28;67422;-67
2022/01/18 00:25:05;;;;;;;0.60;0.60;;;;;;;2.01;66.51;102730.00;684795;28;44417;-67
2022/01/18 00:25:26;;;;;;;0.70;0.70;;;;;;;2.02;66.38;102730.84;684314;28;43963;-67
2022/01/18 00:25:50;;;;;;;0.63;0.63;;;;;;;2.02;66.67;102723.69;685305;28;20187;-67
2022/01/18 00:26:13;;;;;;;0.68;0.68;;;;;;;2.03;66.68;102728.09;682531;28;92296;-67
2022/01/18 00:26:34;;;;;;;0.60;0.60;;;;;;;2.04;66.58;102729.84;683278;28;69453;-67
2022/01/18 00:26:55;;;;;;;0.50;0.50;;;;;;;2.05;66.56;102722.72;684286;28;23198;-67
2022/01/18 00:27:18;;;;;;;0.60;0.60;;;;;;;2.03;66.63;102728.09;686035;28;1585;-67
2022/01/18 00:27:39;;;;;;;0.60;0.60;;;;;;;2.07;66.56;102726.16;685364;28;1367;-67
2022/01/18 00:28:01;;;;;;;0.70;0.70;;;;;;;2.06;66.38;102732.44;684966;28;23437;-67
2022/01/18 00:28:23;;;;;;;0.70;0.70;;;;;;;2.07;66.52;102723.50;683678;28;46322;-67
2022/01/18 00:28:50;;;;;;;0.70;0.70;;;;;;;2.05;66.52;102730.69;684460;28;45242;-67
2022/01/18 00:29:15;;;;;;;0.70;0.70;;;;;;;2.04;66.39;102728.97;680798;28;137700;-67
2022/01/18 00:29:39;;;;;;;0.60;0.60;;;;;;;2.02;66.44;102733.50;683090;28;115425;-67
2022/01/18 00:30:26;;;;;;;0.50;0.50;;;;;;;2.03;66.54;102733.44;682863;28;92322;-67
2022/01/18 00:31:27;;;;;;;0.70;0.70;;;;;;;2.04;66.61;102735.19;680620;28;158958;-67
2022/01/18 00:32:05;;;;;;;0.60;0.60;;;;;;;2.04;66.34;102735.19;676273;28;160999;-67
2022/01/18 00:32:35;;;;;;;0.60;0.60;;;;;;;2.06;66.69;102735.09;679604;28;137540;-67
2022/01/18 00:33:10;;;;;;;0.65;0.65;;;;;;;2.04;66.75;102735.19;679230;28;137718;-67
2022/01/18 00:33:49;;;;;;;0.70;0.70;;;;;;;2.05;66.62;102738.69;679144;28;137562;-67
2022/01/18 00:34:16;;;;;;;0.60;0.60;;;;;;;2.05;66.60;102734.22;681401;28;136001;-67
2022/01/18 00:34:40;;;;;;;0.60;0.60;;;;;;;2.05;66.63;102744.88;681936;28;137793;-67
2022/01/18 00:35:01;;;;;;;0.50;0.50;;;;;;;2.05;66.55;102739.56;683286;28;90630;-67
2022/01/18 00:35:22;;;;;;;0.50;0.50;;;;;;;2.04;66.62;102745.84;685323;28;23542;-67
2022/01/18 00:35:45;;;;;;;0.65;0.65;;;;;;;2.02;66.52;102731.69;685981;28;22421;-67
2022/01/18 00:36:11;;;;;;;0.70;0.70;;;;;;;2.02;66.56;102738.84;684393;28;67058;-67
2022/01/18 00:36:40;;;;;;;0.70;0.70;;;;;;;2.02;66.79;102747.69;682100;28;138222;-67
2022/01/18 00:37:23;;;;;;;0.60;0.60;;;;;;;2.01;66.52;102745.09;681205;28;137950;-67
2022/01/18 00:37:52;;;;;;;0.50;0.50;;;;;;;2.02;66.67;102754.84;681743;28;139044;-67
2022/01/18 00:38:17;;;;;;;0.60;0.60;;;;;;;2.00;66.69;102752.25;681296;28;137993;-67
2022/01/18 00:38:45;;;;;;;0.70;0.70;;;;;;;2.00;66.74;102749.56;682645;28;117640;-67
2022/01/18 00:39:08;;;;;;;0.70;0.70;;;;;;;1.99;66.67;102747.84;681516;28;136648;-67
2022/01/18 00:39:30;;;;;;;0.60;0.60;;;;;;;1.99;66.69;102750.50;684520;28;69423;-67
2022/01/18 00:39:51;;;;;;;0.60;0.60;;;;;;;2.00;66.63;102748.72;684806;28;44496;-67
2022/01/18 00:40:12;;;;;;;0.50;0.50;;;;;;;1.93;66.71;102740.16;684367;28;46348;-67
2022/01/18 00:40:33;;;;;;;0.50;0.50;;;;;;;1.98;66.72;102748.78;683051;28;21543;-67
2022/01/18 00:40:54;;;;;;;0.60;0.60;;;;;;;1.99;66.77;102747.84;683000;28;23662;-67
2022/01/18 00:41:17;;;;;;;0.70;0.70;;;;;;;1.98;66.79;102754.13;682632;28;22421;-67
2022/01/18 00:41:39;;;;;;;0.70;0.70;;;;;;;1.97;66.83;102753.28;680450;28;69392;-67
2022/01/18 00:42:00;;;;;;;0.65;0.65;;;;;;;1.92;66.89;102741.09;682198;28;46291;-67
2022/01/18 00:42:21;;;;;;;0.60;0.60;;;;;;;1.96;66.96;102750.69;683058;28;23544;-67
2022/01/18 00:42:44;;;;;;;0.60;0.60;;;;;;;1.97;66.79;102750.59;686087;28;22405;-67
2022/01/18 00:43:05;;;;;;;0.50;0.50;;;;;;;1.98;66.99;102748.78;684891;28;46336;-67
2022/01/18 00:43:26;;;;;;;0.50;0.50;;;;;;;1.96;66.95;102751.53;685324;28;24433;-67
2022/01/18 00:43:47;;;;;;;0.70;0.70;;;;;;;1.97;67.09;102747.06;686479;28;23425;-67
2022/01/18 00:44:09;;;;;;;0.70;0.70;;;;;;;1.97;66.99;102747.94;685280;28;46694;-67
2022/01/18 00:44:31;;;;;;;0.60;0.60;;;;;;;1.99;66.98;102745.16;685111;28;46356;-67
2022/01/18 00:44:52;;;;;;;0.60;0.60;;;;;;;1.99;67.05;102750.50;685354;28;44409;-67
2022/01/18 00:45:13;;;;;;;0.60;0.60;;;;;;;1.97;67.07;102742.59;684824;28;23424;-67
2022/01/18 00:45:34;;;;;;;0.50;0.50;;;;;;;1.97;67.06;102747.94;686070;28;23427;-67
2022/01/18 00:45:56;;;;;;;0.50;0.50;;;;;;;1.97;67.00;102749.72;685994;28;22401;-67
2022/01/18 00:46:17;;;;;;;0.60;0.60;;;;;;;1.99;67.05;102745.16;685145;28;44398;-67
2022/01/18 00:46:39;;;;;;;0.73;0.73;;;;;;;1.99;67.00;102739.84;685223;28;24436;-67
2022/01/18 00:47:01;;;;;;;0.70;0.70;;;;;;;1.99;67.07;102750.50;685814;28;22397;-67
2022/01/18 00:47:23;;;;;;;0.60;0.60;;;;;;;1.96;67.08;102743.53;684241;28;70308;-67
2022/01/18 00:47:45;;;;;;;0.60;0.60;;;;;;;1.97;67.12;102747.94;686226;28;22422;-67
2022/01/18 00:48:06;;;;;;;0.50;0.50;;;;;;;1.97;67.01;102753.28;684145;28;69823;-67
2022/01/18 00:48:32;;;;;;;0.50;0.50;;;;;;;1.97;67.15;102741.72;686548;28;22258;-67
2022/01/18 00:48:56;;;;;;;0.60;0.60;;;;;;;1.98;67.15;102746.13;682065;28;135881;-67
2022/01/18 00:49:18;;;;;;;0.70;0.70;;;;;;;1.96;67.05;102745.34;683960;28;50354;-67
2022/01/18 00:49:43;;;;;;;0.70;0.70;;;;;;;2.02;67.06;102749.50;684939;28;44293;-67
2022/01/18 00:50:06;;;;;;;0.60;0.60;;;;;;;1.99;67.02;102745.16;681828;28;137841;-67
2022/01/18 00:50:31;;;;;;;0.60;0.60;;;;;;;1.98;67.02;102754.13;684127;28;70363;-67
2022/01/18 00:50:53;;;;;;;0.55;0.55;;;;;;;1.99;67.19;102755.84;682488;28;115031;-67
2022/01/18 00:51:15;;;;;;;0.50;0.50;;;;;;;1.99;67.21;102750.50;684665;28;45275;-67
2022/01/18 00:51:39;;;;;;;0.68;0.68;;;;;;;1.93;67.14;102741.00;684910;28;46336;-67
2022/01/18 00:52:04;;;;;;;0.70;0.70;;;;;;;1.98;67.33;102754.13;681983;28;112699;-67
2022/01/18 00:52:27;;;;;;;0.65;0.65;;;;;;;1.97;67.22;102757.72;685211;28;37719;-67
2022/01/18 00:52:52;;;;;;;0.60;0.60;;;;;;;1.98;67.04;102751.47;683757;28;69284;-67
2022/01/18 00:53:16;;;;;;;0.60;0.60;;;;;;;1.98;67.20;102754.13;682064;28;115763;-67
2022/01/18 00:53:38;;;;;;;0.50;0.50;;;;;;;1.96;67.32;102746.19;683159;28;90156;-67
2022/01/18 00:54:00;;;;;;;0.60;0.60;;;;;;;1.97;67.30;102750.59;684213;28;68369;-67
2022/01/18 00:54:26;;;;;;;0.70;0.70;;;;;;;1.97;67.26;102750.59;685894;28;1422;-67
2022/01/18 00:54:47;;;;;;;0.80;0.80;;;;;;;1.96;67.17;102745.34;682465;28;115963;-67
2022/01/18 00:55:10;;;;;;;0.70;0.70;;;;;;;2.00;67.21;102751.38;685814;28;23408;-67
2022/01/18 00:55:36;;;;;;;0.70;0.70;;;;;;;2.00;67.38;102752.25;683139;28;92320;-67
2022/01/18 00:56:10;;;;;;;0.60;0.60;;;;;;;2.00;67.41;102754.91;682144;28;138122;-67
2022/01/18 00:56:32;;;;;;;0.50;0.50;;;;;;;2.00;67.37;102749.56;681586;28;137342;-67
2022/01/18 00:56:55;;;;;;;0.60;0.60;;;;;;;2.01;67.39;102753.97;684035;28;46467;-67
2022/01/18 00:57:16;;;;;;;0.80;0.80;;;;;;;2.01;67.43;102753.97;683948;28;69450;-67
2022/01/18 00:57:37;;;;;;;0.70;0.70;;;;;;;2.02;67.34;102753.03;685441;28;23517;-67
2022/01/18 00:57:58;;;;;;;0.70;0.70;;;;;;;2.02;67.29;102752.16;685818;28;1424;-67
2022/01/18 00:58:20;;;;;;;0.60;0.60;;;;;;;2.03;67.42;102753.91;685624;28;21525;-67
2022/01/18 00:58:43;;;;;;;0.60;0.60;;;;;;;2.02;67.38;102758.34;684377;28;46260;-67
2022/01/18 00:59:04;;;;;;;0.60;0.60;;;;;;;2.02;67.31;102758.34;684013;28;70330;-67
2022/01/18 00:59:25;;;;;;;0.50;0.50;;;;;;;2.01;67.39;102758.44;686433;28;1607;-67
2022/01/18 00:59:49;;;;;;;0.60;0.60;;;;;;;2.03;67.27;102759.25;686688;28;926;-67
2022/01/18 01:00:11;;;;;;;0.70;0.70;;;;;;;2.03;67.48;102764.56;684667;28;47505;-67
2022/01/18 01:00:32;;;;;;;0.60;0.60;;;;;;;2.04;67.36;102761.84;684512;28;45283;-67
2022/01/18 01:00:53;;;;;;;0.60;0.60;;;;;;;2.04;67.46;102763.63;685020;28;46415;-67
2022/01/18 01:01:15;;;;;;;0.60;0.60;;;;;;;2.05;67.28;102757.34;684311;28;43739;-67
2022/01/18 01:01:37;;;;;;;0.60;0.60;;;;;;;2.05;67.32;102757.34;683977;28;69456;-67
2022/01/18 01:01:59;;;;;;;0.50;0.50;;;;;;;2.06;67.31;102764.44;655859;28;65722;-67
2022/01/18 01:02:20;;;;;;;0.60;0.60;;;;;;;2.06;67.28;102759.09;682725;28;22367;-67
2022/01/18 01:02:41;;;;;;;0.80;0.80;;;;;;;2.07;67.39;102766.13;683046;28;23504;-67
2022/01/18 01:03:03;;;;;;;0.70;0.70;;;;;;;2.06;67.29;102759.09;682852;28;22405;-67
2022/01/18 01:03:24;;;;;;;0.60;0.60;;;;;;;2.08;67.24;102770.53;682171;28;46345;-67
2022/01/18 01:03:45;;;;;;;0.60;0.60;;;;;;;2.09;67.21;102765.13;681951;28;22307;-67
2022/01/18 01:04:06;;;;;;;0.60;0.60;;;;;;;2.09;67.34;102759.81;682332;28;46260;-67
2022/01/18 01:04:32;;;;;;;0.60;0.60;;;;;;;2.09;67.33;102757.16;683251;28;23494;-67
2022/01/18 01:04:53;;;;;;;0.50;0.50;;;;;;;2.08;67.42;102755.41;679199;28;136041;-67
2022/01/18 01:05:15;;;;;;;0.60;0.60;;;;;;;2.11;67.35;102762.41;682666;28;23626;-67
2022/01/18 01:05:36;;;;;;;0.70;0.70;;;;;;;2.06;67.24;102756.44;682819;28;22342;-67
2022/01/18 01:05:57;;;;;;;0.70;0.70;;;;;;;2.09;67.32;102764.28;683079;28;21518;-67
2022/01/18 01:06:20;;;;;;;0.70;0.70;;;;;;;2.10;67.28;102761.53;683278;28;22409;-67
2022/01/18 01:06:41;;;;;;;0.60;0.60;;;;;;;2.10;67.24;102769.53;677195;29;90360;-67
2022/01/18 01:07:03;;;;;;;0.50;0.50;;;;;;;2.08;67.16;102763.41;679761;29;22287;-67
2022/01/18 01:07:25;;;;;;;0.50;0.50;;;;;;;2.09;67.27;102765.13;679644;29;44146;-67
2022/01/18 01:07:46;;;;;;;0.57;0.57;;;;;;;2.08;67.24;102762.53;679211;29;45296;-67
2022/01/18 01:08:07;;;;;;;0.70;0.70;;;;;;;2.07;67.44;102763.47;680276;29;23442;-67
2022/01/18 01:08:28;;;;;;;0.70;0.70;;;;;;;2.05;67.39;102763.53;680682;28;22330;-67
2022/01/18 01:08:51;;;;;;;0.60;0.60;;;;;;;2.09;67.20;102766.94;682918;28;21348;-67
2022/01/18 01:09:12;;;;;;;0.60;0.60;;;;;;;2.08;67.37;102768.72;680630;28;69505;-67
2022/01/18 01:09:33;;;;;;;0.60;0.60;;;;;;;2.09;67.42;102766.94;683116;28;22393;-67
2022/01/18 01:09:55;;;;;;;0.50;0.50;;;;;;;2.09;67.33;102766.94;682852;28;22401;-67
2022/01/18 01:10:17;;;;;;;0.60;0.60;;;;;;;2.07;67.44;102767.03;682401;28;46205;-67
2022/01/18 01:10:38;;;;;;;0.80;0.80;;;;;;;2.07;67.30;102768.81;683004;28;24332;-67
2022/01/18 01:10:59;;;;;;;0.70;0.70;;;;;;;2.08;67.35;102771.41;680198;29;22373;-67
2022/01/18 01:11:20;;;;;;;0.70;0.70;;;;;;;2.09;67.45;102764.28;680100;29;23355;-67
2022/01/18 01:11:42;;;;;;;0.60;0.60;;;;;;;2.10;67.53;102771.31;678930;29;46345;-67
2022/01/18 01:12:05;;;;;;;0.60;0.60;;;;;;;2.10;67.53;102768.66;679611;29;46582;-67
2022/01/18 01:12:26;;;;;;;0.60;0.60;;;;;;;2.11;67.46;102775.72;676538;29;45212;-67
2022/01/18 01:12:47;;;;;;;0.50;0.50;;;;;;;2.12;67.36;102766.81;677671;29;44840;-67
2022/01/18 01:13:11;;;;;;;0.70;0.70;;;;;;;2.11;67.57;102773.91;680211;29;24768;-67
2022/01/18 01:13:33;;;;;;;0.70;0.70;;;;;;;2.12;67.50;102774.81;678607;28;69298;-67
2022/01/18 01:13:57;;;;;;;0.70;0.70;;;;;;;2.11;67.33;102773.06;679298;29;43624;-67
2022/01/18 01:14:22;;;;;;;0.68;0.68;;;;;;;2.12;67.41;102778.31;677998;28;113617;-67
2022/01/18 01:14:45;;;;;;;0.60;0.60;;;;;;;2.11;67.44;102776.59;680519;28;92359;-67
2022/01/18 01:15:11;;;;;;;0.50;0.50;;;;;;;2.12;67.48;102775.66;680849;28;90438;-67
2022/01/18 01:15:38;;;;;;;0.50;0.50;;;;;;;2.12;67.36;102772.13;678952;28;138776;-67
2022/01/18 01:16:11;;;;;;;0.70;0.70;;;;;;;2.12;67.39;102777.47;678873;28;138850;-67
2022/01/18 01:16:56;;;;;;;0.70;0.70;;;;;;;2.13;67.42;102779.19;678916;28;137281;-67
2022/01/18 01:17:30;;;;;;;0.60;0.60;;;;;;;2.12;67.41;102778.31;680338;28;156392;-67
2022/01/18 01:18:06;;;;;;;0.60;0.60;;;;;;;2.13;67.52;102788.06;680561;28;160574;-67
2022/01/18 01:18:40;;;;;;;0.68;0.68;;;;;;;2.08;67.35;102782.06;681829;28;135988;-67
2022/01/18 01:19:22;;;;;;;0.70;0.70;;;;;;;2.05;67.42;102770.69;680491;28;160626;-67
2022/01/18 01:31:59;;;;;;;0.63;0.63;;;;;;;2.06;67.39;102775.09;681771;28;137639;-67
2022/01/18 01:32:20;;;;;;;0.68;0.68;;;;;;;2.30;67.27;102776.59;670255;29;161647;-67
2022/01/18 01:33:09;;;;;;;0.70;0.70;;;;;;;2.31;67.17;102775.66;671983;29;137575;-67
2022/01/18 01:34:06;;;;;;;0.60;0.60;;;;;;;2.30;67.22;102776.59;680915;28;161213;-67
2022/01/18 01:34:39;;;;;;;0.70;0.70;;;;;;;2.31;67.16;102777.47;681784;28;136032;-67
2022/01/18 01:35:12;;;;;;;0.70;0.70;;;;;;;2.30;67.06;102775.72;681060;28;161436;-67
2022/01/18 01:35:44;;;;;;;0.70;0.70;;;;;;;2.28;67.09;102778.47;680631;28;161013;-67
2022/01/18 01:36:19;;;;;;;0.60;0.60;;;;;;;2.29;67.12;102776.69;681836;28;138235;-67
2022/01/18 01:37:11;;;;;;;0.60;0.60;;;;;;;2.26;67.17;102772.34;680278;28;158921;-67
2022/01/18 01:42:43;;;;;;;0.60;0.60;;;;;;;2.17;67.03;102781.63;668407;29;138239;-67
2022/01/18 01:43:14;;;;;;;0.70;0.70;;;;;;;2.16;67.20;102779.03;681614;28;137403;-67
2022/01/18 01:43:48;;;;;;;0.68;0.68;;;;;;;2.14;67.19;102776.44;682359;28;138492;-67
2022/01/18 01:44:22;;;;;;;0.60;0.60;;;;;;;2.14;67.30;102787.09;682592;28;124514;-67
2022/01/18 01:44:45;;;;;;;0.50;0.50;;;;;;;2.13;67.35;102777.41;682368;28;137675;-67
2022/01/18 01:45:09;;;;;;;0.52;0.52;;;;;;;2.11;67.28;102779.25;684725;28;69425;-67
2022/01/18 01:45:34;;;;;;;0.75;0.75;;;;;;;2.11;67.42;102786.41;683586;28;92322;-67
2022/01/18 01:45:55;;;;;;;0.70;0.70;;;;;;;2.09;67.42;102788.28;682923;28;113119;-67
2022/01/18 01:46:18;;;;;;;0.63;0.63;;;;;;;2.08;67.64;102786.53;686046;28;22232;-67
2022/01/18 01:46:40;;;;;;;0.60;0.60;;;;;;;2.06;67.29;102781.28;683969;28;67087;-67
2022/01/18 01:47:02;;;;;;;0.60;0.60;;;;;;;2.07;67.42;102792.78;684420;28;67470;-67
2022/01/18 01:47:34;;;;;;;0.57;0.57;;;;;;;2.06;67.42;102788.41;684081;28;69420;-67
2022/01/18 01:47:55;;;;;;;0.57;0.57;;;;;;;2.04;67.41;102779.59;682248;28;138147;-67
2022/01/18 01:48:17;;;;;;;0.73;0.73;;;;;;;2.04;67.55;102785.81;685202;28;46420;-67
2022/01/18 01:48:41;;;;;;;0.70;0.70;;;;;;;2.04;67.61;102785.81;685564;28;44442;-67
2022/01/18 01:49:05;;;;;;;0.68;0.68;;;;;;;2.04;67.55;102784.94;684087;28;69487;-67
2022/01/18 01:49:27;;;;;;;0.60;0.60;;;;;;;2.02;67.69;102787.66;682797;28;115111;-67
2022/01/18 01:49:51;;;;;;;0.60;0.60;;;;;;;1.98;67.85;102783.44;686203;28;22900;-67
2022/01/18 01:50:18;;;;;;;0.50;0.50;;;;;;;2.01;67.66;102787.75;683017;28;115044;-67
2022/01/18 01:50:45;;;;;;;0.60;0.60;;;;;;;2.00;67.85;102784.22;681782;28;138164;-67
2022/01/18 01:51:06;;;;;;;0.73;0.73;;;;;;;1.97;67.79;102779.91;682263;28;138749;-67
2022/01/18 01:51:30;;;;;;;0.70;0.70;;;;;;;2.01;67.89;102783.31;686278;28;21145;-67
2022/01/18 01:51:52;;;;;;;0.60;0.60;;;;;;;1.97;67.99;102779.91;683080;28;92324;-67
2022/01/18 01:52:13;;;;;;;0.65;0.65;;;;;;;2.00;67.83;102781.56;685343;28;44385;-67
2022/01/18 01:52:35;;;;;;;0.60;0.60;;;;;;;2.01;67.91;102779.75;686410;28;22171;-67
2022/01/18 01:52:57;;;;;;;0.52;0.52;;;;;;;2.01;67.84;102783.31;685333;28;46306;-67
2022/01/18 01:53:19;;;;;;;0.50;0.50;;;;;;;2.01;67.79;102783.31;685364;28;45240;-67
2022/01/18 01:53:41;;;;;;;0.70;0.70;;;;;;;2.01;67.82;102777.97;683991;28;69473;-67
2022/01/18 01:54:05;;;;;;;0.70;0.70;;;;;;;2.02;67.98;102784.16;686001;28;23285;-67
2022/01/18 01:54:26;;;;;;;0.63;0.63;;;;;;;2.02;67.97;102784.16;683633;28;92055;-67
2022/01/18 01:54:48;;;;;;;0.60;0.60;;;;;;;2.02;67.91;102792.16;686326;28;21298;-67
2022/01/18 01:55:10;;;;;;;0.60;0.60;;;;;;;2.01;67.66;102785.06;684922;28;45275;-67
2022/01/18 01:55:31;;;;;;;0.60;0.60;;;;;;;2.00;67.82;102786.88;685127;28;46344;-67
2022/01/18 01:55:52;;;;;;;0.52;0.52;;;;;;;2.01;67.93;102785.06;685801;28;22429;-67
2022/01/18 01:56:14;;;;;;;0.70;0.70;;;;;;;1.99;67.91;102779.81;685151;28;47837;-66
2022/01/18 01:56:36;;;;;;;0.70;0.70;;;;;;;1.98;67.73;102780.78;686484;28;18829;-67
2022/01/18 01:56:57;;;;;;;0.70;0.70;;;;;;;1.97;67.88;102774.59;684109;28;46325;-67
2022/01/18 01:57:18;;;;;;;0.70;0.70;;;;;;;1.97;67.95;102782.59;685059;28;21526;-67
2022/01/18 01:57:39;;;;;;;0.60;0.60;;;;;;;1.97;67.91;102782.59;685949;28;23461;-67
2022/01/18 01:58:01;;;;;;;0.60;0.60;;;;;;;1.95;67.83;102780.91;685325;28;22365;-66
2022/01/18 01:58:24;;;;;;;0.50;0.50;;;;;;;1.93;68.16;102773.00;685229;28;47000;-66
2022/01/18 01:58:45;;;;;;;0.73;0.73;;;;;;;1.96;67.96;102783.50;684295;28;69342;-67
2022/01/18 01:59:06;;;;;;;0.70;0.70;;;;;;;1.95;67.90;102780.91;685074;28;21532;-67
2022/01/18 01:59:28;;;;;;;0.70;0.70;;;;;;;1.94;67.98;102779.16;686156;28;23454;-67
2022/01/18 01:59:57;;;;;;;0.70;0.70;;;;;;;1.92;67.99;102784.56;682207;28;137920;-67
2022/01/18 02:00:20;;;;;;;0.70;0.70;;;;;;;1.92;67.94;102778.38;681834;28;46385;-67
2022/01/18 02:00:44;;;;;;;0.60;0.60;;;;;;;1.91;68.03;102779.31;681320;28;69451;-66
2022/01/18 02:01:06;;;;;;;0.60;0.60;;;;;;;1.91;68.08;102779.31;681076;28;92425;-67
2022/01/18 02:01:27;;;;;;;0.70;0.70;;;;;;;1.85;68.08;102774.25;682994;28;46344;-66
2022/01/18 02:01:49;;;;;;;0.80;0.80;;;;;;;1.89;67.95;102786.53;682328;28;23313;-67
2022/01/18 02:02:10;;;;;;;0.80;0.80;;;;;;;1.87;68.30;102780.41;683284;28;46359;-66
2022/01/18 02:02:32;;;;;;;0.70;0.70;;;;;;;1.87;68.17;102780.41;685067;28;44697;-67
2022/01/18 02:02:54;;;;;;;0.68;0.68;;;;;;;1.85;68.15;102777.81;685031;28;46483;-66
2022/01/18 02:03:17;;;;;;;0.60;0.60;;;;;;;1.84;68.23;102772.56;686198;28;23666;-67
2022/01/18 02:03:39;;;;;;;0.60;0.60;;;;;;;1.83;68.01;102774.34;684637;28;67510;-67
2022/01/18 02:04:00;;;;;;;0.60;0.60;;;;;;;1.80;68.36;102780.69;685287;28;46169;-67
2022/01/18 02:04:21;;;;;;;0.75;0.75;;;;;;;1.80;68.32;102783.34;686253;28;21541;-66
2022/01/18 02:04:42;;;;;;;0.70;0.70;;;;;;;1.79;68.26;102776.28;686320;28;23439;-67
2022/01/18 02:05:05;;;;;;;0.70;0.70;;;;;;;1.80;68.42;102778.03;686209;28;22459;-66
2022/01/18 02:05:26;;;;;;;0.70;0.70;;;;;;;1.79;68.28;102778.09;681106;28;67786;-67
2022/01/18 02:05:47;;;;;;;0.60;0.60;;;;;;;1.79;68.35;102778.94;682359;28;21549;-66
2022/01/18 02:06:09;;;;;;;0.60;0.60;;;;;;;1.76;68.20;102773.75;683633;28;21612;-66
2022/01/18 02:06:30;;;;;;;0.52;0.52;;;;;;;1.78;68.30;102773.69;682551;28;46364;-67
2022/01/18 02:06:52;;;;;;;0.70;0.70;;;;;;;1.79;68.55;102775.44;679644;28;21523;-67
2022/01/18 02:07:13;;;;;;;0.80;0.80;;;;;;;1.79;68.38;102780.75;680127;28;44413;-67
2022/01/18 02:07:35;;;;;;;0.80;0.80;;;;;;;1.80;68.46;102777.13;682912;28;22411;-67
2022/01/18 02:07:56;;;;;;;0.70;0.70;;;;;;;1.80;68.19;102778.03;682889;28;46352;-66
2022/01/18 02:08:18;;;;;;;0.63;0.63;;;;;;;1.79;68.34;102773.63;683116;28;21300;-66
2022/01/18 02:08:39;;;;;;;0.60;0.60;;;;;;;1.73;68.35;102775.72;682954;28;47486;-67
2022/01/18 02:09:00;;;;;;;0.60;0.60;;;;;;;1.74;68.31;102782.75;684928;28;44065;-66
2022/01/18 02:09:22;;;;;;;0.60;0.60;;;;;;;1.73;68.34;102779.22;685250;28;23513;-66
2022/01/18 02:09:44;;;;;;;0.80;0.80;;;;;;;1.73;68.30;102784.56;686402;28;21375;-66
2022/01/18 02:10:07;;;;;;;0.80;0.80;;;;;;;1.70;68.46;102782.03;685512;28;46379;-66
2022/01/18 02:10:28;;;;;;;0.75;0.75;;;;;;;1.68;68.40;102778.56;684739;28;70372;-67
2022/01/18 02:10:49;;;;;;;0.70;0.70;;;;;;;1.67;68.48;102775.97;686002;28;22441;-67
2022/01/18 02:11:11;;;;;;;0.70;0.70;;;;;;;1.62;68.44;102773.53;685920;28;21504;-67
2022/01/18 02:11:33;;;;;;;0.60;0.60;;;;;;;1.65;68.43;102780.53;685556;28;46184;-66
2022/01/18 02:11:56;;;;;;;0.60;0.60;;;;;;;1.65;68.65;102781.38;684575;28;44143;-67
2022/01/18 02:12:18;;;;;;;0.70;0.70;;;;;;;1.65;68.68;102778.72;684116;28;68385;-67
2022/01/18 02:12:39;;;;;;;0.80;0.80;;;;;;;1.63;68.64;102772.59;683917;28;46331;-68
2022/01/18 02:13:01;;;;;;;0.80;0.80;;;;;;;1.64;68.66;102782.28;685976;28;23128;-67
2022/01/18 02:13:22;;;;;;;0.70;0.70;;;;;;;1.64;68.71;102782.28;685406;28;44367;-66